createdAt,value
2018-06-04T00:00:11.247Z,29.42
2018-06-04T00:00:44.378Z,27.20
2018-06-04T00:01:17.530Z,28.25
2018-06-04T00:01:50.637Z,29.55
2018-06-04T00:02:23.969Z,28.45
2018-06-04T00:02:57.084Z,31.68
2018-06-04T00:03:30.241Z,28.35
2018-06-04T00:04:03.380Z,29.25
2018-06-04T00:04:36.556Z,26.73
2018-06-04T00:05:09.846Z,26.75
2018-06-04T00:05:43.024Z,31.87
2018-06-04T00:06:16.511Z,25.80
2018-06-04T00:06:49.624Z,26.73
2018-06-04T00:07:22.710Z,27.52
2018-06-04T00:07:55.822Z,26.55
2018-06-04T00:08:28.933Z,27.32
2018-06-04T00:09:02.302Z,30.75
2018-06-04T00:09:35.458Z,28.50
2018-06-04T00:10:08.646Z,31.45
2018-06-04T00:10:41.822Z,25.75
2018-06-04T00:11:14.937Z,30.55
2018-06-04T00:11:48.627Z,33.25
2018-06-04T00:12:21.702Z,31.48
2018-06-04T00:12:54.849Z,29.12
2018-06-04T00:13:28.017Z,26.27
2018-06-04T00:14:01.809Z,26.75
2018-06-04T00:14:34.925Z,30.52
2018-06-04T00:15:08.167Z,29.90
2018-06-04T00:15:41.288Z,28.98
2018-06-04T00:16:14.455Z,28.92
2018-06-04T00:16:47.624Z,32.45
2018-06-04T00:17:20.901Z,28.85
2018-06-04T00:17:54.042Z,29.82
2018-06-04T00:18:27.553Z,27.70
2018-06-04T00:19:00.712Z,30.60
2018-06-04T00:19:33.824Z,28.17
2018-06-04T00:20:07.816Z,29.02
2018-06-04T00:20:40.901Z,30.70
2018-06-04T00:21:14.053Z,28.92
2018-06-04T00:21:47.231Z,28.92
2018-06-04T00:22:20.946Z,27.17
2018-06-04T00:22:54.167Z,27.82
2018-06-04T00:23:27.312Z,30.72
2018-06-04T00:24:00.574Z,28.57
2018-06-04T00:24:33.661Z,30.88
2018-06-04T00:25:06.743Z,30.97
2018-06-04T00:25:39.824Z,26.75
2018-06-04T00:26:12.944Z,29.12
2018-06-04T00:26:46.131Z,34.35
2018-06-04T00:27:19.708Z,31.23
2018-06-04T00:27:52.832Z,26.62
2018-06-04T00:28:26.013Z,26.87
2018-06-04T00:28:59.287Z,28.12
2018-06-04T00:29:32.415Z,29.75
2018-06-04T00:30:05.828Z,28.62
2018-06-04T00:30:39.023Z,29.20
2018-06-04T00:31:12.116Z,29.27
2018-06-04T00:31:45.277Z,36.03
2018-06-04T00:32:18.555Z,28.20
2018-06-04T00:32:51.688Z,28.60
2018-06-04T00:33:24.815Z,29.50
2018-06-04T00:33:58.087Z,29.20
2018-06-04T00:34:31.249Z,31.73
2018-06-04T00:35:04.437Z,26.77
2018-06-04T00:35:37.690Z,30.40
2018-06-04T00:36:10.783Z,30.72
2018-06-04T00:36:43.974Z,29.67
2018-06-04T00:37:17.076Z,33.50
2018-06-04T00:37:50.338Z,33.88
2018-06-04T00:38:23.441Z,34.05
2018-06-04T00:38:56.803Z,29.00
2018-06-04T00:39:29.900Z,30.37
2018-06-04T00:40:03.048Z,30.25
2018-06-04T00:40:36.217Z,30.02
2018-06-04T00:41:09.347Z,28.35
2018-06-04T00:41:42.448Z,27.27
2018-06-04T00:42:15.553Z,28.23
2018-06-04T00:42:48.939Z,30.72
2018-06-04T00:43:22.104Z,29.45
2018-06-04T00:43:55.409Z,30.75
2018-06-04T00:44:28.554Z,29.32
2018-06-04T00:45:01.693Z,29.95
2018-06-04T00:45:34.820Z,30.72
2018-06-04T00:46:07.997Z,28.70
2018-06-04T00:46:41.176Z,27.87
2018-06-04T00:47:14.281Z,30.97
2018-06-04T00:47:47.333Z,32.88
2018-06-04T00:48:20.530Z,31.30
2018-06-04T00:48:53.693Z,27.30
2018-06-04T00:49:27.035Z,28.90
2018-06-04T00:50:00.099Z,29.23
2018-06-04T00:50:33.184Z,26.77
2018-06-04T00:51:06.509Z,28.80
2018-06-04T00:51:39.585Z,29.32
2018-06-04T00:52:12.884Z,32.65
2018-06-04T00:52:45.976Z,30.32
2018-06-04T00:53:19.053Z,33.33
2018-06-04T00:53:52.366Z,30.25
2018-06-04T00:54:25.686Z,28.05
2018-06-04T00:54:58.948Z,29.30
2018-06-04T00:55:32.603Z,25.43
2018-06-04T00:56:11.351Z,26.82
2018-06-04T00:56:44.536Z,29.70
2018-06-04T00:57:17.938Z,28.40
2018-06-04T00:57:51.505Z,27.55
2018-06-04T00:58:24.568Z,28.17
2018-06-04T00:58:57.667Z,31.70
2018-06-04T00:59:30.784Z,30.10
2018-06-04T01:00:04.165Z,29.65
2018-06-04T01:00:37.319Z,30.12
2018-06-04T01:01:10.397Z,27.30
2018-06-04T01:01:43.580Z,26.40
2018-06-04T01:02:16.671Z,28.20
2018-06-04T01:02:50.424Z,29.90
2018-06-04T01:03:23.550Z,27.98
2018-06-04T01:03:56.785Z,25.62
2018-06-04T01:04:29.892Z,24.90
2018-06-04T01:05:03.067Z,28.00
2018-06-04T01:05:36.168Z,26.17
2018-06-04T01:06:09.273Z,28.27
2018-06-04T01:06:42.347Z,33.02
2018-06-04T01:07:15.422Z,26.60
2018-06-04T01:07:48.724Z,26.15
2018-06-04T01:08:22.020Z,29.92
2018-06-04T01:08:55.152Z,30.80
2018-06-04T01:09:28.486Z,25.55
2018-06-04T01:10:01.735Z,23.73
2018-06-04T01:10:34.928Z,31.10
2018-06-04T01:11:08.642Z,31.70
2018-06-04T01:11:41.898Z,29.00
2018-06-04T01:12:15.062Z,28.67
2018-06-04T01:12:48.371Z,36.20
2018-06-04T01:13:21.479Z,26.95
2018-06-04T01:13:54.615Z,27.20
2018-06-04T01:14:27.703Z,27.40
2018-06-04T01:15:00.955Z,29.10
2018-06-04T01:15:34.088Z,31.42
2018-06-04T01:16:07.348Z,25.17
2018-06-04T01:16:40.483Z,28.98
2018-06-04T01:17:13.698Z,29.55
2018-06-04T01:17:46.863Z,29.23
2018-06-04T01:18:20.348Z,27.87
2018-06-04T01:18:53.891Z,28.07
2018-06-04T01:19:26.987Z,32.83
2018-06-04T01:20:00.130Z,26.20
2018-06-04T01:20:33.385Z,30.48
2018-06-04T01:21:06.852Z,30.55
2018-06-04T01:21:39.943Z,25.88
2018-06-04T01:22:13.274Z,30.05
2018-06-04T01:22:46.404Z,30.65
2018-06-04T01:23:19.808Z,28.90
2018-06-04T01:23:53.053Z,30.97
2018-06-04T01:24:26.257Z,30.08
2018-06-04T01:24:59.419Z,31.15
2018-06-04T01:25:32.516Z,29.25
2018-06-04T01:26:06.561Z,31.77
2018-06-04T01:26:39.639Z,29.00
2018-06-04T01:27:12.750Z,29.23
2018-06-04T01:27:46.208Z,29.45
2018-06-04T01:28:19.344Z,30.65
2018-06-04T01:28:52.696Z,27.85
2018-06-04T01:29:25.783Z,31.30
2018-06-04T01:29:58.900Z,28.70
2018-06-04T01:30:32.120Z,28.38
2018-06-04T01:31:05.296Z,29.45
2018-06-04T01:31:38.475Z,30.85
2018-06-04T01:32:11.650Z,35.13
2018-06-04T01:32:44.767Z,28.65
2018-06-04T01:33:17.877Z,27.82
2018-06-04T01:33:51.186Z,29.85
2018-06-04T01:34:24.487Z,30.45
2018-06-04T01:34:57.606Z,30.75
2018-06-04T01:35:30.721Z,32.67
2018-06-04T01:36:04.138Z,26.25
2018-06-04T01:36:37.232Z,29.52
2018-06-04T01:37:10.392Z,30.02
2018-06-04T01:37:43.492Z,31.42
2018-06-04T01:38:16.612Z,31.73
2018-06-04T01:38:49.784Z,33.02
2018-06-04T01:39:23.221Z,29.70
2018-06-04T01:39:56.452Z,28.05
2018-06-04T01:40:29.559Z,30.85
2018-06-04T01:41:02.757Z,28.55
2018-06-04T01:41:35.893Z,28.40
2018-06-04T01:42:09.019Z,29.75
2018-06-04T01:42:42.101Z,30.82
2018-06-04T01:43:15.540Z,29.63
2018-06-04T01:43:49.348Z,27.37
2018-06-04T01:44:22.455Z,30.08
2018-06-04T01:44:55.665Z,26.10
2018-06-04T01:45:28.746Z,28.85
2018-06-04T01:46:02.056Z,24.65
2018-06-04T01:46:35.135Z,27.30
2018-06-04T01:47:08.517Z,25.45
2018-06-04T01:47:41.597Z,27.27
2018-06-04T01:48:14.691Z,27.30
2018-06-04T01:48:47.949Z,27.73
2018-06-04T01:49:21.127Z,27.15
2018-06-04T01:49:54.286Z,27.25
2018-06-04T01:50:28.196Z,27.67
2018-06-04T01:51:02.171Z,29.32
2018-06-04T01:51:35.488Z,32.58
2018-06-04T01:52:08.939Z,27.75
2018-06-04T01:52:42.037Z,27.10
2018-06-04T01:53:15.296Z,29.48
2018-06-04T01:53:48.496Z,25.85
2018-06-04T01:54:21.638Z,25.15
2018-06-04T01:54:54.724Z,31.05
2018-06-04T01:55:27.833Z,29.02
2018-06-04T01:56:00.903Z,29.45
2018-06-04T01:56:33.978Z,28.40
2018-06-04T01:57:07.146Z,29.35
2018-06-04T01:57:41.232Z,33.42
2018-06-04T01:58:14.356Z,27.20
2018-06-04T01:58:47.590Z,30.08
2018-06-04T01:59:21.045Z,31.30
2018-06-04T01:59:54.200Z,26.75
2018-06-04T02:00:27.366Z,27.10
2018-06-04T02:01:00.604Z,29.67
2018-06-04T02:01:33.728Z,27.07
2018-06-04T02:02:06.959Z,29.85
2018-06-04T02:02:40.081Z,29.48
2018-06-04T02:03:13.196Z,30.27
2018-06-04T02:03:46.292Z,31.68
2018-06-04T02:04:19.499Z,25.60
2018-06-04T02:04:52.600Z,27.73
2018-06-04T02:05:26.152Z,31.85
2018-06-04T02:05:59.535Z,26.80
2018-06-04T02:06:32.640Z,28.42
2018-06-04T02:07:05.755Z,30.32
2018-06-04T02:07:39.075Z,27.60
2018-06-04T02:08:12.241Z,27.50
2018-06-04T02:08:45.408Z,29.67
2018-06-04T02:09:18.601Z,28.45
2018-06-04T02:09:51.783Z,30.70
2018-06-04T02:10:24.876Z,32.25
2018-06-04T02:10:57.999Z,32.15
2018-06-04T02:11:31.088Z,28.83
2018-06-04T02:12:04.183Z,27.45
2018-06-04T02:12:37.344Z,33.05
2018-06-04T02:13:10.569Z,30.40
2018-06-04T02:13:43.683Z,29.65
2018-06-04T02:14:16.859Z,31.33
2018-06-04T02:14:50.019Z,29.15
2018-06-04T02:15:23.248Z,32.10
2018-06-04T02:15:56.719Z,31.33
2018-06-04T02:16:29.812Z,28.25
2018-06-04T02:17:03.105Z,34.35
2018-06-04T02:17:36.587Z,31.48
2018-06-04T02:18:09.732Z,30.55
2018-06-04T02:18:42.844Z,33.33
2018-06-04T02:19:16.128Z,27.27
2018-06-04T02:19:49.211Z,31.33
2018-06-04T02:20:22.479Z,31.00
2018-06-04T02:20:55.611Z,32.08
2018-06-04T02:21:28.837Z,29.87
2018-06-04T02:22:02.013Z,35.73
2018-06-04T02:22:35.178Z,31.68
2018-06-04T02:23:08.364Z,33.05
2018-06-04T02:23:41.536Z,29.32
2018-06-04T02:24:14.620Z,27.73
2018-06-04T02:24:47.892Z,28.98
2018-06-04T02:25:21.078Z,33.13
2018-06-04T02:25:54.174Z,31.73
2018-06-04T02:26:27.560Z,30.82
2018-06-04T02:27:00.664Z,32.20
2018-06-04T02:27:33.752Z,32.35
2018-06-04T02:28:06.884Z,30.17
2018-06-04T02:28:40.003Z,28.90
2018-06-04T02:29:13.090Z,29.15
2018-06-04T02:29:46.451Z,31.27
2018-06-04T02:30:19.673Z,30.57
2018-06-04T02:30:52.786Z,29.52
2018-06-04T02:31:25.881Z,30.12
2018-06-04T02:31:58.996Z,31.57
2018-06-04T02:32:32.080Z,29.42
2018-06-04T02:33:05.511Z,34.35
2018-06-04T02:33:38.764Z,32.23
2018-06-04T02:34:11.935Z,30.15
2018-06-04T02:34:45.237Z,28.30
2018-06-04T02:35:18.375Z,29.07
2018-06-04T02:35:51.468Z,29.32
2018-06-04T02:36:24.773Z,29.90
2018-06-04T02:36:57.895Z,34.18
2018-06-04T02:37:31.025Z,32.60
2018-06-04T02:38:04.137Z,28.98
2018-06-04T02:38:37.351Z,29.70
2018-06-04T02:39:10.547Z,28.38
2018-06-04T02:39:43.649Z,29.52
2018-06-04T02:40:16.741Z,29.10
2018-06-04T02:40:50.067Z,30.20
2018-06-04T02:41:23.203Z,29.23
2018-06-04T02:41:56.436Z,29.37
2018-06-04T02:42:29.571Z,30.45
2018-06-04T02:43:02.659Z,28.70
2018-06-04T02:43:35.826Z,31.52
2018-06-04T02:44:08.934Z,29.48
2018-06-04T02:44:42.044Z,31.33
2018-06-04T02:45:15.138Z,28.47
2018-06-04T02:45:48.372Z,30.25
2018-06-04T02:46:21.503Z,30.40
2018-06-04T02:46:54.721Z,36.65
2018-06-04T02:47:28.004Z,31.90
2018-06-04T02:48:01.091Z,31.25
2018-06-04T02:48:34.248Z,30.37
2018-06-04T02:49:07.449Z,30.37
2018-06-04T02:49:40.547Z,30.00
2018-06-04T02:50:13.691Z,29.77
2018-06-04T02:50:47.004Z,31.07
2018-06-04T02:51:20.162Z,31.30
2018-06-04T02:51:53.270Z,38.02
2018-06-04T02:52:26.516Z,29.82
2018-06-04T02:52:59.809Z,32.15
2018-06-04T02:53:32.924Z,30.05
2018-06-04T02:54:06.077Z,35.98
2018-06-04T02:54:39.754Z,30.88
2018-06-04T02:55:13.022Z,35.83
2018-06-04T02:55:46.129Z,31.87
2018-06-04T02:56:19.376Z,27.65
2018-06-04T02:56:52.547Z,32.67
2018-06-04T02:57:26.336Z,32.35
2018-06-04T02:57:59.532Z,35.25
2018-06-04T02:58:32.715Z,32.75
2018-06-04T02:59:05.816Z,31.12
2018-06-04T02:59:39.057Z,37.28
2018-06-04T03:00:12.156Z,31.93
2018-06-04T03:00:45.243Z,33.63
2018-06-04T03:01:18.356Z,29.45
2018-06-04T03:01:51.469Z,30.92
2018-06-04T03:02:24.585Z,36.88
2018-06-04T03:02:57.859Z,30.90
2018-06-04T03:03:30.954Z,29.75
2018-06-04T03:04:04.092Z,30.65
2018-06-04T03:04:37.503Z,31.17
2018-06-04T03:05:10.995Z,32.03
2018-06-04T03:05:44.472Z,31.40
2018-06-04T03:06:17.563Z,31.93
2018-06-04T03:06:51.047Z,32.75
2018-06-04T03:07:24.129Z,33.45
2018-06-04T03:07:57.368Z,30.05
2018-06-04T03:08:30.911Z,36.23
2018-06-04T03:09:06.304Z,30.85
2018-06-04T03:09:39.403Z,31.17
2018-06-04T03:10:12.520Z,30.17
2018-06-04T03:10:45.843Z,27.75
2018-06-04T03:11:18.984Z,28.50
2018-06-04T03:11:52.539Z,26.65
2018-06-04T03:12:25.680Z,25.90
2018-06-04T03:12:59.043Z,27.75
2018-06-04T03:13:32.142Z,29.00
2018-06-04T03:14:05.994Z,27.60
2018-06-04T03:14:39.107Z,26.30
2018-06-04T03:15:12.666Z,29.32
2018-06-04T03:15:45.797Z,27.70
2018-06-04T03:16:19.052Z,27.98
2018-06-04T03:16:52.334Z,34.48
2018-06-04T03:17:25.421Z,25.75
2018-06-04T03:17:58.568Z,27.52
2018-06-04T03:18:31.871Z,29.27
2018-06-04T03:19:04.944Z,27.60
2018-06-04T03:20:14.678Z,24.65
2018-06-04T03:20:47.836Z,25.95
2018-06-04T03:21:20.955Z,25.25
2018-06-04T03:21:54.317Z,23.90
2018-06-04T03:22:27.407Z,24.27
2018-06-04T03:23:00.532Z,26.35
2018-06-04T03:23:33.749Z,25.70
2018-06-04T03:24:06.885Z,25.50
2018-06-04T03:24:39.985Z,25.27
2018-06-04T03:25:13.303Z,23.40
2018-06-04T03:25:46.451Z,24.95
2018-06-04T03:26:19.553Z,26.17
2018-06-04T03:26:52.680Z,23.95
2018-06-04T03:27:25.967Z,23.20
2018-06-04T03:27:59.508Z,23.80
2018-06-04T03:28:32.657Z,30.23
2018-06-04T03:29:05.787Z,28.62
2018-06-04T03:29:38.880Z,22.80
2018-06-04T03:30:12.799Z,28.30
2018-06-04T03:30:45.988Z,28.02
2018-06-04T03:31:19.060Z,25.05
2018-06-04T03:31:53.065Z,27.70
2018-06-04T03:32:26.857Z,25.70
2018-06-04T03:33:00.543Z,27.42
2018-06-04T03:33:34.339Z,24.45
2018-06-04T03:34:07.483Z,24.32
2018-06-04T03:34:40.561Z,26.70
2018-06-04T03:35:13.883Z,27.85
2018-06-04T03:35:47.024Z,22.73
2018-06-04T03:36:20.237Z,26.95
2018-06-04T03:36:53.653Z,28.42
2018-06-04T03:37:26.830Z,27.35
2018-06-04T03:38:01.367Z,27.67
2018-06-04T03:38:34.477Z,26.30
2018-06-04T03:39:08.626Z,27.10
2018-06-04T03:39:41.947Z,29.15
2018-06-04T03:40:15.045Z,33.10
2018-06-04T03:40:48.160Z,29.75
2018-06-04T03:41:21.411Z,25.57
2018-06-04T03:41:54.515Z,31.27
2018-06-04T03:42:27.599Z,28.87
2018-06-04T03:43:00.767Z,26.95
2018-06-04T03:43:33.883Z,24.85
2018-06-04T03:44:07.163Z,27.93
2018-06-04T03:44:40.879Z,28.60
2018-06-04T03:45:14.468Z,29.40
2018-06-04T03:45:47.750Z,29.40
2018-06-04T03:46:20.861Z,30.00
2018-06-04T03:46:53.972Z,30.02
2018-06-04T03:47:27.545Z,29.15
2018-06-04T03:48:00.646Z,30.02
2018-06-04T03:48:33.825Z,29.55
2018-06-04T03:49:07.000Z,29.70
2018-06-04T03:49:40.170Z,33.75
2018-06-04T03:50:13.376Z,30.97
2018-06-04T03:50:46.538Z,34.55
2018-06-04T03:51:19.714Z,29.55
2018-06-04T03:51:52.908Z,31.50
2018-06-04T03:52:26.168Z,33.88
2018-06-04T03:52:59.243Z,33.25
2018-06-04T03:53:32.552Z,32.13
2018-06-04T03:54:05.659Z,33.40
2018-06-04T03:54:39.820Z,31.73
2018-06-04T03:55:12.917Z,38.13
2018-06-04T03:55:46.145Z,34.85
2018-06-04T03:56:19.368Z,34.43
2018-06-04T03:56:52.771Z,34.60
2018-06-04T03:57:26.208Z,30.55
2018-06-04T03:57:59.337Z,29.80
2018-06-04T03:58:32.446Z,32.40
2018-06-04T03:59:05.689Z,29.95
2018-06-04T03:59:38.805Z,33.85
2018-06-04T04:00:11.914Z,31.85
2018-06-04T04:00:45.011Z,34.50
2018-06-04T04:01:18.136Z,36.53
2018-06-04T04:01:51.380Z,29.12
2018-06-04T04:02:24.489Z,34.18
2018-06-04T04:02:57.670Z,35.00
2018-06-04T04:03:30.737Z,31.42
2018-06-04T04:04:03.844Z,32.15
2018-06-04T04:04:37.513Z,32.63
2018-06-04T04:05:10.655Z,35.05
2018-06-04T04:05:43.833Z,31.65
2018-06-04T04:06:16.942Z,32.55
2018-06-04T04:06:50.098Z,35.70
2018-06-04T04:07:23.423Z,38.65
2018-06-04T04:07:56.604Z,34.88
2018-06-04T04:08:29.776Z,32.05
2018-06-04T04:09:03.174Z,30.27
2018-06-04T04:09:36.477Z,35.00
2018-06-04T04:10:09.592Z,36.20
2018-06-04T04:10:42.834Z,34.98
2018-06-04T04:11:16.020Z,32.25
2018-06-04T04:11:49.128Z,34.13
2018-06-04T04:12:22.226Z,32.13
2018-06-04T04:12:55.645Z,36.53
2018-06-04T04:13:28.822Z,38.95
2018-06-04T04:14:01.939Z,36.05
2018-06-04T04:14:35.180Z,36.10
2018-06-04T04:15:08.279Z,33.63
2018-06-04T04:15:41.430Z,35.35
2018-06-04T04:16:14.713Z,30.95
2018-06-04T04:16:48.036Z,38.00
2018-06-04T04:17:21.277Z,33.40
2018-06-04T04:17:54.673Z,38.17
2018-06-04T04:18:27.786Z,38.48
2018-06-04T04:19:00.905Z,35.48
2018-06-04T04:19:34.613Z,34.85
2018-06-04T04:20:07.714Z,35.75
2018-06-04T04:20:40.954Z,37.45
2018-06-04T04:21:14.109Z,36.40
2018-06-04T04:21:47.920Z,35.23
2018-06-04T04:22:21.040Z,33.92
2018-06-04T04:22:54.287Z,35.03
2018-06-04T04:23:27.456Z,33.78
2018-06-04T04:24:00.580Z,36.35
2018-06-04T04:24:33.782Z,32.90
2018-06-04T04:25:06.909Z,32.67
2018-06-04T04:25:40.172Z,35.25
2018-06-04T04:26:13.345Z,35.83
2018-06-04T04:26:46.543Z,34.63
2018-06-04T04:27:19.709Z,36.05
2018-06-04T04:27:53.061Z,31.77
2018-06-04T04:28:26.347Z,36.98
2018-06-04T04:28:59.594Z,35.85
2018-06-04T04:29:32.768Z,33.90
2018-06-04T04:30:06.344Z,37.67
2018-06-04T04:30:39.636Z,32.83
2018-06-04T04:31:12.863Z,36.10
2018-06-04T04:31:45.977Z,37.17
2018-06-04T04:32:19.989Z,37.50
2018-06-04T04:32:53.125Z,34.50
2018-06-04T04:33:26.237Z,34.70
2018-06-04T04:33:59.351Z,33.38
2018-06-04T04:34:32.560Z,35.60
2018-06-04T04:35:05.691Z,33.33
2018-06-04T04:35:38.938Z,33.83
2018-06-04T04:36:12.211Z,32.85
2018-06-04T04:36:45.303Z,31.17
2018-06-04T04:37:18.391Z,34.27
2018-06-04T04:37:51.791Z,31.35
2018-06-04T04:38:24.915Z,30.70
2018-06-04T04:38:58.005Z,35.73
2018-06-04T04:39:31.139Z,34.30
2018-06-04T04:40:04.218Z,32.80
2018-06-04T04:40:37.380Z,40.90
2018-06-04T04:41:10.504Z,32.90
2018-06-04T04:41:43.623Z,36.25
2018-06-04T04:42:16.872Z,34.30
2018-06-04T04:42:49.967Z,34.43
2018-06-04T04:43:23.300Z,36.85
2018-06-04T04:43:56.596Z,38.92
2018-06-04T04:44:29.875Z,38.02
2018-06-04T04:45:03.133Z,40.58
2018-06-04T04:45:36.243Z,37.53
2018-06-04T04:46:09.367Z,34.88
2018-06-04T04:46:42.470Z,37.30
2018-06-04T04:47:15.556Z,38.28
2018-06-04T04:47:48.961Z,39.73
2018-06-04T04:48:22.100Z,44.88
2018-06-04T04:48:55.207Z,40.30
2018-06-04T04:49:28.392Z,41.37
2018-06-04T04:50:01.869Z,39.23
2018-06-04T04:50:35.051Z,34.60
2018-06-04T04:51:08.216Z,39.48
2018-06-04T04:51:41.318Z,38.13
2018-06-04T04:52:14.450Z,36.83
2018-06-04T04:52:47.636Z,38.95
2018-06-04T04:53:20.735Z,36.42
2018-06-04T04:53:53.806Z,38.40
2018-06-04T04:54:27.503Z,36.73
2018-06-04T04:55:00.894Z,37.65
2018-06-04T04:55:34.473Z,38.65
2018-06-04T04:56:07.748Z,36.83
2018-06-04T04:56:40.958Z,35.52
2018-06-04T04:57:14.072Z,36.68
2018-06-04T04:57:47.301Z,38.92
2018-06-04T04:58:20.577Z,39.35
2018-06-04T04:58:53.772Z,37.00
2018-06-04T04:59:27.245Z,37.65
2018-06-04T05:00:00.412Z,38.60
2018-06-04T05:00:33.561Z,39.38
2018-06-04T05:01:06.722Z,35.30
2018-06-04T05:01:39.791Z,40.00
2018-06-04T05:02:13.031Z,40.88
2018-06-04T05:02:46.222Z,41.10
2018-06-04T05:03:19.397Z,42.23
2018-06-04T05:03:53.267Z,37.15
2018-06-04T05:04:26.463Z,39.18
2018-06-04T05:04:59.765Z,35.63
2018-06-04T05:05:33.017Z,38.65
2018-06-04T05:06:06.114Z,39.50
2018-06-04T05:06:39.386Z,39.50
2018-06-04T05:07:12.568Z,37.25
2018-06-04T05:07:46.232Z,38.10
2018-06-04T05:08:19.507Z,38.13
2018-06-04T05:08:53.300Z,37.10
2018-06-04T05:09:26.498Z,41.25
2018-06-04T05:09:59.738Z,35.08
2018-06-04T05:10:32.933Z,33.70
2018-06-04T05:11:06.085Z,40.05
2018-06-04T05:11:40.109Z,35.30
2018-06-04T05:12:13.268Z,40.08
2018-06-04T05:12:46.622Z,37.35
2018-06-04T05:13:20.019Z,39.60
2018-06-04T05:13:53.790Z,41.33
2018-06-04T05:14:27.583Z,38.08
2018-06-04T05:15:00.836Z,43.87
2018-06-04T05:15:34.838Z,37.70
2018-06-04T05:16:07.972Z,40.38
2018-06-04T05:16:41.186Z,41.50
2018-06-04T05:17:14.398Z,34.80
2018-06-04T05:17:47.898Z,34.70
2018-06-04T05:18:21.339Z,36.90
2018-06-04T05:18:54.698Z,36.53
2018-06-04T05:19:27.804Z,39.13
2018-06-04T05:20:01.182Z,35.88
2018-06-04T05:20:34.345Z,34.30
2018-06-04T05:21:07.479Z,41.35
2018-06-04T05:21:40.721Z,35.80
2018-06-04T05:22:14.236Z,35.75
2018-06-04T05:22:47.412Z,38.90
2018-06-04T05:23:20.681Z,38.28
2018-06-04T05:23:53.811Z,35.40
2018-06-04T05:24:26.907Z,34.88
2018-06-04T05:25:00.026Z,36.83
2018-06-04T05:25:33.201Z,35.13
2018-06-04T05:26:06.453Z,39.48
2018-06-04T05:26:39.763Z,39.63
2018-06-04T05:27:12.879Z,34.55
2018-06-04T05:27:46.013Z,33.13
2018-06-04T05:28:19.187Z,37.55
2018-06-04T05:28:52.318Z,38.42
2018-06-04T05:29:25.538Z,36.10
2018-06-04T05:29:59.154Z,34.15
2018-06-04T05:30:32.897Z,34.80
2018-06-04T05:31:06.010Z,37.90
2018-06-04T05:31:39.385Z,41.95
2018-06-04T05:32:12.768Z,35.25
2018-06-04T05:32:45.889Z,38.17
2018-06-04T05:33:19.047Z,35.17
2018-06-04T05:33:52.445Z,36.17
2018-06-04T05:34:25.970Z,35.95
2018-06-04T05:34:59.095Z,35.50
2018-06-04T05:35:32.383Z,35.75
2018-06-04T05:36:05.517Z,36.30
2018-06-04T05:36:39.186Z,36.00
2018-06-04T05:37:12.467Z,35.17
2018-06-04T05:37:45.666Z,36.95
2018-06-04T05:38:18.825Z,36.80
2018-06-04T05:38:52.031Z,34.90
2018-06-04T05:39:25.222Z,36.88
2018-06-04T05:39:58.321Z,36.75
2018-06-04T05:40:31.668Z,36.08
2018-06-04T05:41:04.781Z,37.40
2018-06-04T05:41:37.932Z,35.63
2018-06-04T05:42:11.043Z,39.23
2018-06-04T05:42:44.277Z,38.25
2018-06-04T05:43:17.741Z,35.80
2018-06-04T05:43:50.897Z,35.80
2018-06-04T05:44:24.128Z,34.20
2018-06-04T05:44:57.311Z,39.70
2018-06-04T05:45:31.068Z,37.00
2018-06-04T05:46:04.289Z,35.10
2018-06-04T05:46:37.494Z,36.00
2018-06-04T05:47:10.629Z,36.20
2018-06-04T05:47:43.912Z,36.73
2018-06-04T05:48:17.696Z,32.88
2018-06-04T05:48:50.816Z,36.08
2018-06-04T05:49:24.268Z,35.45
2018-06-04T05:49:57.505Z,34.38
2018-06-04T05:50:30.678Z,35.38
2018-06-04T05:51:03.798Z,38.73
2018-06-04T05:51:36.902Z,35.95
2018-06-04T05:52:10.007Z,38.73
2018-06-04T05:52:43.328Z,35.52
2018-06-04T05:53:16.520Z,35.03
2018-06-04T05:53:49.820Z,34.35
2018-06-04T05:54:23.100Z,33.50
2018-06-04T05:54:56.238Z,34.90
2018-06-04T05:55:29.512Z,36.03
2018-06-04T05:56:02.693Z,35.92
2018-06-04T05:56:35.955Z,33.88
2018-06-04T05:57:09.086Z,35.35
2018-06-04T05:57:42.235Z,41.68
2018-06-04T05:58:15.445Z,36.73
2018-06-04T05:58:48.621Z,35.03
2018-06-04T05:59:22.192Z,34.92
2018-06-04T05:59:55.677Z,39.20
2018-06-04T06:00:28.835Z,36.25
2018-06-04T06:01:02.222Z,33.33
2018-06-04T06:01:35.361Z,35.73
2018-06-04T06:02:08.576Z,31.90
2018-06-04T06:02:41.720Z,33.30
2018-06-04T06:03:15.294Z,38.48
2018-06-04T06:03:48.447Z,35.48
2018-06-04T06:04:21.600Z,34.18
2018-06-04T06:04:54.704Z,37.63
2018-06-04T06:05:28.008Z,35.55
2018-06-04T06:06:01.297Z,32.73
2018-06-04T06:06:35.202Z,33.90
2018-06-04T06:07:08.379Z,30.68
2018-06-04T06:07:41.625Z,28.85
2018-06-04T06:08:15.340Z,32.65
2018-06-04T06:08:48.445Z,31.40
2018-06-04T06:09:21.767Z,29.25
2018-06-04T06:09:55.541Z,32.23
2018-06-04T06:10:28.699Z,25.88
2018-06-04T06:11:01.920Z,25.70
2018-06-04T06:11:36.017Z,30.00
2018-06-04T06:12:09.121Z,33.02
2018-06-04T06:12:42.383Z,32.05
2018-06-04T06:13:15.958Z,28.17
2018-06-04T06:13:49.042Z,30.97
2018-06-04T06:14:22.156Z,27.60
2018-06-04T06:14:55.325Z,29.70
2018-06-04T06:15:28.504Z,30.57
2018-06-04T06:16:01.740Z,30.88
2018-06-04T06:16:36.241Z,29.90
2018-06-04T06:17:09.596Z,30.02
2018-06-04T06:17:42.791Z,28.17
2018-06-04T06:18:17.511Z,30.82
2018-06-04T06:18:50.597Z,30.35
2018-06-04T06:19:25.939Z,29.67
2018-06-04T06:19:59.119Z,30.45
2018-06-04T06:20:32.399Z,29.85
2018-06-04T06:21:05.713Z,34.33
2018-06-04T06:21:39.230Z,33.98
2018-06-04T06:22:14.289Z,29.12
2018-06-04T06:22:47.976Z,30.30
2018-06-04T06:23:21.106Z,35.63
2018-06-04T06:23:54.299Z,32.83
2018-06-04T06:24:28.266Z,28.10
2018-06-04T06:25:01.783Z,28.02
2018-06-04T06:25:34.953Z,31.77
2018-06-04T06:26:08.203Z,31.30
2018-06-04T06:26:41.500Z,26.48
2018-06-04T06:27:14.616Z,29.30
2018-06-04T06:28:18.308Z,26.68
2018-06-04T06:28:51.709Z,27.30
2018-06-04T06:29:24.870Z,25.55
2018-06-04T06:29:58.068Z,25.65
2018-06-04T06:30:31.189Z,22.70
2018-06-04T06:31:04.961Z,21.70
2018-06-04T06:31:38.469Z,24.50
2018-06-04T06:32:12.501Z,23.47
2018-06-04T06:32:45.599Z,23.85
2018-06-04T06:33:18.774Z,23.52
2018-06-04T06:33:52.075Z,26.90
2018-06-04T06:34:25.170Z,23.65
2018-06-04T06:34:58.286Z,21.15
2018-06-04T06:35:32.048Z,25.32
2018-06-04T06:36:05.185Z,23.00
2018-06-04T06:36:39.121Z,20.90
2018-06-04T06:37:12.230Z,26.30
2018-06-04T06:37:45.403Z,24.20
2018-06-04T06:38:18.484Z,25.48
2018-06-04T06:38:51.629Z,25.50
2018-06-04T06:39:24.808Z,26.27
2018-06-04T06:39:58.140Z,29.65
2018-06-04T06:40:33.215Z,26.05
2018-06-04T06:41:07.165Z,23.00
2018-06-04T06:41:40.282Z,21.62
2018-06-04T06:42:13.407Z,26.90
2018-06-04T06:42:46.535Z,31.12
2018-06-04T06:43:19.668Z,18.85
2018-06-04T06:43:53.167Z,23.20
2018-06-04T06:44:26.448Z,20.55
2018-06-04T06:44:59.583Z,25.88
2018-06-04T06:45:32.680Z,25.02
2018-06-04T06:46:06.556Z,22.82
2018-06-04T06:46:40.568Z,25.48
2018-06-04T06:47:14.094Z,24.90
2018-06-04T06:47:47.855Z,31.50
2018-06-04T06:48:22.618Z,23.15
2018-06-04T06:48:55.793Z,22.50
2018-06-04T06:49:29.352Z,25.12
2018-06-04T06:50:02.562Z,24.70
2018-06-04T06:50:35.663Z,23.73
2018-06-04T06:51:08.765Z,22.37
2018-06-04T06:51:42.579Z,21.93
2018-06-04T06:52:16.400Z,28.65
2018-06-04T06:52:49.828Z,24.65
2018-06-04T06:53:23.339Z,25.95
2018-06-04T06:53:56.594Z,22.07
2018-06-04T06:54:29.764Z,22.93
2018-06-04T06:55:02.877Z,25.30
2018-06-04T06:55:36.056Z,28.17
2018-06-04T06:56:09.274Z,23.18
2018-06-04T06:56:42.389Z,23.10
2018-06-04T06:57:16.810Z,24.40
2018-06-04T06:57:50.041Z,22.00
2018-06-04T06:58:23.228Z,24.70
2018-06-04T06:58:56.402Z,24.07
2018-06-04T06:59:29.544Z,23.40
2018-06-04T07:00:02.701Z,22.02
2018-06-04T07:00:36.191Z,22.42
2018-06-04T07:01:09.383Z,18.70
2018-06-04T07:01:42.498Z,19.27
2018-06-04T07:02:15.771Z,19.82
2018-06-04T07:02:49.767Z,21.15
2018-06-04T07:03:22.954Z,23.05
2018-06-04T07:03:56.211Z,27.40
2018-06-04T07:04:29.332Z,23.52
2018-06-04T07:05:02.542Z,28.17
2018-06-04T07:05:35.710Z,26.10
2018-06-04T07:06:09.003Z,20.62
2018-06-04T07:06:42.234Z,22.67
2018-06-04T07:07:15.553Z,20.40
2018-06-04T07:07:48.765Z,20.95
2018-06-04T07:08:21.866Z,21.00
2018-06-04T07:08:55.043Z,22.80
2018-06-04T07:09:28.294Z,19.57